Terminal Aerodrome Forecast
Issued by NWS

Home | Current Version | Previous Version | Text Only | Print | Product List | Glossary Off
Versions: 1 2 3 4 5 6 7 8 9 10 11 12 13 14 15 16 17 18 19

000
FTUS42 KMHX 191100
TAFPGV
TAF
KPGV 191138Z 1912/2012 27008KT P6SM SCT040
      TEMPO 1912/1913 5SM BR OVC005
     FM191900 30008KT P6SM VCTS BKN040CB
     FM200100 36004KT P6SM SCT040 BKN100
     FM200800 01003KT 4SM BR SCT007 BKN100
      AMD LTD TO CLD VIS AND WIND=

USA.gov is the U.S. government's official web portal to all federal, state and local government web resources and services.